sensor_id;sensor_type;location;lat;lon;timestamp;P1;durP1;ratioP1;P2;durP2;ratioP2
33495;SDS011;19836;55.812;37.560;2022-08-19T00:00:29;10.63;;;4.80;;
33495;SDS011;19836;55.812;37.560;2022-08-19T00:02:55;7.85;;;4.32;;
33495;SDS011;19836;55.812;37.560;2022-08-19T00:05:21;5.90;;;5.20;;
33495;SDS011;19836;55.812;37.560;2022-08-19T00:07:48;7.38;;;5.05;;
33495;SDS011;19836;55.812;37.560;2022-08-19T00:10:15;7.07;;;4.57;;
33495;SDS011;19836;55.812;37.560;2022-08-19T00:12:41;7.43;;;4.97;;
33495;SDS011;19836;55.812;37.560;2022-08-19T00:15:09;8.68;;;4.90;;
33495;SDS011;19836;55.812;37.560;2022-08-19T00:17:44;8.55;;;4.68;;
33495;SDS011;19836;55.812;37.560;2022-08-19T00:20:12;8.13;;;5.05;;
33495;SDS011;19836;55.812;37.560;2022-08-19T00:22:42;6.38;;;4.82;;
33495;SDS011;19836;55.812;37.560;2022-08-19T00:25:09;10.15;;;4.68;;
33495;SDS011;19836;55.812;37.560;2022-08-19T00:27:36;6.65;;;5.18;;
33495;SDS011;19836;55.812;37.560;2022-08-19T00:30:02;6.85;;;4.65;;
33495;SDS011;19836;55.812;37.560;2022-08-19T00:32:30;8.73;;;4.75;;
33495;SDS011;19836;55.812;37.560;2022-08-19T00:34:55;8.85;;;4.90;;
33495;SDS011;19836;55.812;37.560;2022-08-19T00:37:22;8.25;;;5.07;;
33495;SDS011;19836;55.812;37.560;2022-08-19T00:39:51;8.25;;;5.00;;
33495;SDS011;19836;55.812;37.560;2022-08-19T00:42:18;9.68;;;5.50;;
33495;SDS011;19836;55.812;37.560;2022-08-19T00:44:46;7.38;;;5.30;;
33495;SDS011;19836;55.812;37.560;2022-08-19T00:47:12;9.40;;;5.03;;
33495;SDS011;19836;55.812;37.560;2022-08-19T00:49:52;10.13;;;5.40;;
33495;SDS011;19836;55.812;37.560;2022-08-19T00:52:23;9.43;;;5.43;;
33495;SDS011;19836;55.812;37.560;2022-08-19T00:54:57;10.10;;;5.43;;
33495;SDS011;19836;55.812;37.560;2022-08-19T00:57:26;10.57;;;5.60;;
33495;SDS011;19836;55.812;37.560;2022-08-19T00:59:56;8.65;;;5.70;;
33495;SDS011;19836;55.812;37.560;2022-08-19T01:02:23;8.55;;;6.30;;
33495;SDS011;19836;55.812;37.560;2022-08-19T01:04:50;8.98;;;5.78;;
33495;SDS011;19836;55.812;37.560;2022-08-19T01:07:16;8.63;;;6.03;;
33495;SDS011;19836;55.812;37.560;2022-08-19T01:09:43;7.78;;;5.63;;
33495;SDS011;19836;55.812;37.560;2022-08-19T01:12:09;9.50;;;5.70;;
33495;SDS011;19836;55.812;37.560;2022-08-19T01:14:36;9.82;;;6.10;;
33495;SDS011;19836;55.812;37.560;2022-08-19T01:17:04;10.23;;;5.95;;
33495;SDS011;19836;55.812;37.560;2022-08-19T01:19:33;7.10;;;5.57;;
33495;SDS011;19836;55.812;37.560;2022-08-19T01:24:41;11.38;;;6.60;;
33495;SDS011;19836;55.812;37.560;2022-08-19T01:27:08;11.27;;;7.35;;
33495;SDS011;19836;55.812;37.560;2022-08-19T01:29:34;10.35;;;7.15;;
33495;SDS011;19836;55.812;37.560;2022-08-19T01:32:06;13.57;;;7.13;;
33495;SDS011;19836;55.812;37.560;2022-08-19T01:34:34;10.00;;;7.00;;
33495;SDS011;19836;55.812;37.560;2022-08-19T01:37:00;12.05;;;6.50;;
33495;SDS011;19836;55.812;37.560;2022-08-19T01:41:56;8.85;;;6.05;;
33495;SDS011;19836;55.812;37.560;2022-08-19T01:44:22;11.48;;;5.95;;
33495;SDS011;19836;55.812;37.560;2022-08-19T01:46:50;9.68;;;6.53;;
33495;SDS011;19836;55.812;37.560;2022-08-19T01:49:20;8.10;;;6.03;;
33495;SDS011;19836;55.812;37.560;2022-08-19T01:51:48;12.00;;;6.40;;
33495;SDS011;19836;55.812;37.560;2022-08-19T01:54:15;7.70;;;5.95;;
33495;SDS011;19836;55.812;37.560;2022-08-19T01:56:42;10.38;;;6.45;;
33495;SDS011;19836;55.812;37.560;2022-08-19T01:59:13;11.18;;;6.03;;
33495;SDS011;19836;55.812;37.560;2022-08-19T02:01:42;9.23;;;6.72;;
33495;SDS011;19836;55.812;37.560;2022-08-19T02:04:08;10.00;;;6.13;;
33495;SDS011;19836;55.812;37.560;2022-08-19T02:06:34;9.32;;;6.25;;
33495;SDS011;19836;55.812;37.560;2022-08-19T02:09:01;9.32;;;6.15;;
33495;SDS011;19836;55.812;37.560;2022-08-19T02:11:29;11.20;;;6.38;;
33495;SDS011;19836;55.812;37.560;2022-08-19T02:14:00;9.82;;;6.13;;
33495;SDS011;19836;55.812;37.560;2022-08-19T02:16:27;11.32;;;6.22;;
33495;SDS011;19836;55.812;37.560;2022-08-19T02:18:55;12.05;;;6.05;;
33495;SDS011;19836;55.812;37.560;2022-08-19T02:21:21;8.90;;;5.65;;
33495;SDS011;19836;55.812;37.560;2022-08-19T02:23:49;9.88;;;5.90;;
33495;SDS011;19836;55.812;37.560;2022-08-19T02:26:16;9.85;;;5.47;;
33495;SDS011;19836;55.812;37.560;2022-08-19T02:28:42;8.98;;;6.35;;
33495;SDS011;19836;55.812;37.560;2022-08-19T02:31:09;10.68;;;5.72;;
33495;SDS011;19836;55.812;37.560;2022-08-19T02:33:42;9.63;;;5.40;;
33495;SDS011;19836;55.812;37.560;2022-08-19T02:36:10;6.88;;;5.05;;
33495;SDS011;19836;55.812;37.560;2022-08-19T02:38:37;9.25;;;5.45;;
33495;SDS011;19836;55.812;37.560;2022-08-19T02:41:06;7.43;;;5.50;;
33495;SDS011;19836;55.812;37.560;2022-08-19T02:43:36;9.63;;;5.57;;
33495;SDS011;19836;55.812;37.560;2022-08-19T02:46:14;7.90;;;5.80;;
33495;SDS011;19836;55.812;37.560;2022-08-19T02:48:43;9.35;;;5.47;;
33495;SDS011;19836;55.812;37.560;2022-08-19T02:51:14;12.52;;;5.72;;
33495;SDS011;19836;55.812;37.560;2022-08-19T02:53:42;7.35;;;5.22;;
33495;SDS011;19836;55.812;37.560;2022-08-19T02:56:08;11.75;;;5.57;;
33495;SDS011;19836;55.812;37.560;2022-08-19T02:58:34;6.57;;;4.80;;
33495;SDS011;19836;55.812;37.560;2022-08-19T03:00:59;7.55;;;5.30;;
33495;SDS011;19836;55.812;37.560;2022-08-19T03:03:26;7.95;;;5.18;;
33495;SDS011;19836;55.812;37.560;2022-08-19T03:06:02;7.90;;;5.22;;
33495;SDS011;19836;55.812;37.560;2022-08-19T03:08:39;7.53;;;5.07;;
33495;SDS011;19836;55.812;37.560;2022-08-19T03:11:12;7.28;;;4.35;;
33495;SDS011;19836;55.812;37.560;2022-08-19T03:13:42;9.00;;;4.57;;
33495;SDS011;19836;55.812;37.560;2022-08-19T03:16:09;9.20;;;4.90;;
33495;SDS011;19836;55.812;37.560;2022-08-19T03:18:36;6.35;;;4.82;;
33495;SDS011;19836;55.812;37.560;2022-08-19T03:21:02;9.02;;;4.80;;
33495;SDS011;19836;55.812;37.560;2022-08-19T03:23:29;6.85;;;4.65;;
33495;SDS011;19836;55.812;37.560;2022-08-19T03:25:54;8.00;;;4.97;;
33495;SDS011;19836;55.812;37.560;2022-08-19T03:28:20;7.43;;;4.38;;
33495;SDS011;19836;55.812;37.560;2022-08-19T03:31:11;9.70;;;4.97;;
33495;SDS011;19836;55.812;37.560;2022-08-19T03:33:37;8.15;;;4.65;;
33495;SDS011;19836;55.812;37.560;2022-08-19T03:36:05;7.70;;;4.72;;
33495;SDS011;19836;55.812;37.560;2022-08-19T03:38:37;7.65;;;5.60;;
33495;SDS011;19836;55.812;37.560;2022-08-19T03:41:15;6.70;;;4.93;;
33495;SDS011;19836;55.812;37.560;2022-08-19T03:43:43;6.55;;;4.60;;
33495;SDS011;19836;55.812;37.560;2022-08-19T03:46:13;7.63;;;4.93;;
33495;SDS011;19836;55.812;37.560;2022-08-19T03:48:42;7.57;;;5.10;;
33495;SDS011;19836;55.812;37.560;2022-08-19T03:51:15;9.57;;;5.28;;
33495;SDS011;19836;55.812;37.560;2022-08-19T03:53:57;7.68;;;5.32;;
33495;SDS011;19836;55.812;37.560;2022-08-19T03:56:25;7.05;;;5.55;;
33495;SDS011;19836;55.812;37.560;2022-08-19T03:58:57;8.20;;;5.50;;
33495;SDS011;19836;55.812;37.560;2022-08-19T04:01:26;8.13;;;5.38;;
33495;SDS011;19836;55.812;37.560;2022-08-19T04:03:53;7.80;;;5.93;;
33495;SDS011;19836;55.812;37.560;2022-08-19T04:06:20;10.05;;;5.32;;
33495;SDS011;19836;55.812;37.560;2022-08-19T04:08:52;9.57;;;5.03;;
33495;SDS011;19836;55.812;37.560;2022-08-19T04:11:21;9.05;;;5.40;;
33495;SDS011;19836;55.812;37.560;2022-08-19T04:13:50;13.85;;;4.93;;
33495;SDS011;19836;55.812;37.560;2022-08-19T04:16:19;7.40;;;4.93;;
33495;SDS011;19836;55.812;37.560;2022-08-19T04:18:49;7.80;;;4.85;;
33495;SDS011;19836;55.812;37.560;2022-08-19T04:21:16;7.43;;;5.45;;
33495;SDS011;19836;55.812;37.560;2022-08-19T04:23:45;9.32;;;4.50;;
33495;SDS011;19836;55.812;37.560;2022-08-19T04:26:15;8.32;;;4.93;;
33495;SDS011;19836;55.812;37.560;2022-08-19T04:28:47;8.60;;;4.43;;
33495;SDS011;19836;55.812;37.560;2022-08-19T04:31:15;8.57;;;4.30;;
33495;SDS011;19836;55.812;37.560;2022-08-19T04:33:57;9.68;;;4.28;;
33495;SDS011;19836;55.812;37.560;2022-08-19T04:36:26;6.85;;;4.07;;
33495;SDS011;19836;55.812;37.560;2022-08-19T04:38:54;6.55;;;4.00;;
33495;SDS011;19836;55.812;37.560;2022-08-19T04:41:22;4.80;;;3.50;;
33495;SDS011;19836;55.812;37.560;2022-08-19T04:44:06;7.13;;;3.60;;
33495;SDS011;19836;55.812;37.560;2022-08-19T04:46:32;9.70;;;3.90;;
33495;SDS011;19836;55.812;37.560;2022-08-19T04:48:59;6.47;;;3.88;;
33495;SDS011;19836;55.812;37.560;2022-08-19T04:51:26;8.23;;;3.60;;
33495;SDS011;19836;55.812;37.560;2022-08-19T04:53:54;8.57;;;3.85;;
33495;SDS011;19836;55.812;37.560;2022-08-19T04:56:20;6.07;;;3.83;;
33495;SDS011;19836;55.812;37.560;2022-08-19T04:58:48;6.45;;;3.72;;
33495;SDS011;19836;55.812;37.560;2022-08-19T05:01:18;5.80;;;3.80;;
33495;SDS011;19836;55.812;37.560;2022-08-19T05:03:45;8.00;;;4.03;;
33495;SDS011;19836;55.812;37.560;2022-08-19T05:06:13;5.22;;;3.60;;
33495;SDS011;19836;55.812;37.560;2022-08-19T05:08:42;6.65;;;3.33;;
33495;SDS011;19836;55.812;37.560;2022-08-19T05:11:10;6.35;;;4.00;;
33495;SDS011;19836;55.812;37.560;2022-08-19T05:13:40;5.03;;;3.53;;
33495;SDS011;19836;55.812;37.560;2022-08-19T05:16:06;8.32;;;3.83;;
33495;SDS011;19836;55.812;37.560;2022-08-19T05:18:32;7.15;;;4.07;;
33495;SDS011;19836;55.812;37.560;2022-08-19T05:21:17;8.20;;;4.03;;
33495;SDS011;19836;55.812;37.560;2022-08-19T05:24:03;8.10;;;3.92;;
33495;SDS011;19836;55.812;37.560;2022-08-19T05:29:00;6.40;;;3.38;;
33495;SDS011;19836;55.812;37.560;2022-08-19T05:31:25;7.07;;;5.40;;
33495;SDS011;19836;55.812;37.560;2022-08-19T05:33:51;7.28;;;3.97;;
33495;SDS011;19836;55.812;37.560;2022-08-19T05:36:17;6.05;;;3.90;;
33495;SDS011;19836;55.812;37.560;2022-08-19T05:38:54;5.47;;;3.58;;
33495;SDS011;19836;55.812;37.560;2022-08-19T05:41:20;8.80;;;3.70;;
33495;SDS011;19836;55.812;37.560;2022-08-19T05:43:50;5.68;;;3.20;;
33495;SDS011;19836;55.812;37.560;2022-08-19T05:46:17;9.00;;;3.50;;
33495;SDS011;19836;55.812;37.560;2022-08-19T05:48:44;5.43;;;3.35;;
33495;SDS011;19836;55.812;37.560;2022-08-19T05:51:10;7.45;;;3.70;;
33495;SDS011;19836;55.812;37.560;2022-08-19T05:53:36;5.63;;;3.30;;
33495;SDS011;19836;55.812;37.560;2022-08-19T05:56:03;7.18;;;3.60;;
33495;SDS011;19836;55.812;37.560;2022-08-19T05:58:34;7.43;;;3.55;;
33495;SDS011;19836;55.812;37.560;2022-08-19T06:01:00;6.78;;;3.15;;
33495;SDS011;19836;55.812;37.560;2022-08-19T06:03:34;4.85;;;2.97;;
33495;SDS011;19836;55.812;37.560;2022-08-19T06:06:03;5.55;;;3.22;;
33495;SDS011;19836;55.812;37.560;2022-08-19T06:08:30;5.82;;;3.13;;
33495;SDS011;19836;55.812;37.560;2022-08-19T06:10:56;7.28;;;3.30;;
33495;SDS011;19836;55.812;37.560;2022-08-19T06:13:22;6.88;;;3.40;;
33495;SDS011;19836;55.812;37.560;2022-08-19T06:15:49;5.32;;;3.15;;
33495;SDS011;19836;55.812;37.560;2022-08-19T06:18:15;4.85;;;3.15;;
33495;SDS011;19836;55.812;37.560;2022-08-19T06:20:42;5.18;;;3.00;;
33495;SDS011;19836;55.812;37.560;2022-08-19T06:23:08;6.25;;;3.70;;
33495;SDS011;19836;55.812;37.560;2022-08-19T06:25:34;7.65;;;3.22;;
33495;SDS011;19836;55.812;37.560;2022-08-19T06:28:01;8.00;;;3.40;;
33495;SDS011;19836;55.812;37.560;2022-08-19T06:30:27;6.97;;;3.22;;
33495;SDS011;19836;55.812;37.560;2022-08-19T06:32:53;13.85;;;3.92;;
33495;SDS011;19836;55.812;37.560;2022-08-19T06:35:19;3.85;;;2.83;;
33495;SDS011;19836;55.812;37.560;2022-08-19T06:37:45;10.40;;;3.60;;
33495;SDS011;19836;55.812;37.560;2022-08-19T06:40:11;6.88;;;3.33;;
33495;SDS011;19836;55.812;37.560;2022-08-19T06:42:37;10.55;;;3.45;;
33495;SDS011;19836;55.812;37.560;2022-08-19T06:45:05;8.85;;;3.45;;
33495;SDS011;19836;55.812;37.560;2022-08-19T06:47:33;11.70;;;3.55;;
33495;SDS011;19836;55.812;37.560;2022-08-19T06:49:59;10.70;;;3.70;;
33495;SDS011;19836;55.812;37.560;2022-08-19T06:52:30;7.63;;;3.43;;
33495;SDS011;19836;55.812;37.560;2022-08-19T06:54:57;6.10;;;3.33;;
33495;SDS011;19836;55.812;37.560;2022-08-19T06:57:24;5.07;;;3.03;;
33495;SDS011;19836;55.812;37.560;2022-08-19T06:59:50;7.03;;;3.30;;
33495;SDS011;19836;55.812;37.560;2022-08-19T07:02:16;7.65;;;3.53;;
33495;SDS011;19836;55.812;37.560;2022-08-19T07:04:43;9.40;;;4.30;;
33495;SDS011;19836;55.812;37.560;2022-08-19T07:07:10;5.75;;;3.55;;
33495;SDS011;19836;55.812;37.560;2022-08-19T07:09:39;5.97;;;2.70;;
33495;SDS011;19836;55.812;37.560;2022-08-19T07:12:08;4.85;;;2.80;;
33495;SDS011;19836;55.812;37.560;2022-08-19T07:14:37;6.82;;;3.35;;
33495;SDS011;19836;55.812;37.560;2022-08-19T07:17:04;6.22;;;3.20;;
33495;SDS011;19836;55.812;37.560;2022-08-19T07:19:32;8.23;;;3.33;;
33495;SDS011;19836;55.812;37.560;2022-08-19T07:22:00;9.07;;;3.47;;
33495;SDS011;19836;55.812;37.560;2022-08-19T07:24:28;23.60;;;5.88;;
33495;SDS011;19836;55.812;37.560;2022-08-19T07:26:55;7.90;;;4.13;;
33495;SDS011;19836;55.812;37.560;2022-08-19T07:29:27;12.10;;;3.83;;
33495;SDS011;19836;55.812;37.560;2022-08-19T07:31:59;9.13;;;4.07;;
33495;SDS011;19836;55.812;37.560;2022-08-19T07:34:26;55.80;;;7.30;;
33495;SDS011;19836;55.812;37.560;2022-08-19T07:36:54;11.43;;;8.50;;
33495;SDS011;19836;55.812;37.560;2022-08-19T07:39:22;25.35;;;5.78;;
33495;SDS011;19836;55.812;37.560;2022-08-19T07:41:50;13.40;;;4.28;;
33495;SDS011;19836;55.812;37.560;2022-08-19T07:44:16;7.45;;;3.92;;
33495;SDS011;19836;55.812;37.560;2022-08-19T07:46:46;13.20;;;3.90;;
33495;SDS011;19836;55.812;37.560;2022-08-19T07:52:18;35.25;;;7.18;;
33495;SDS011;19836;55.812;37.560;2022-08-19T07:54:37;5.88;;;2.90;;
33495;SDS011;19836;55.812;37.560;2022-08-19T07:57:04;26.88;;;4.30;;
33495;SDS011;19836;55.812;37.560;2022-08-19T07:59:31;19.13;;;4.18;;
33495;SDS011;19836;55.812;37.560;2022-08-19T08:01:57;8.88;;;2.83;;
33495;SDS011;19836;55.812;37.560;2022-08-19T08:04:25;11.00;;;3.00;;
33495;SDS011;19836;55.812;37.560;2022-08-19T08:07:24;11.90;;;3.33;;
33495;SDS011;19836;55.812;37.560;2022-08-19T08:10:08;8.90;;;2.97;;
33495;SDS011;19836;55.812;37.560;2022-08-19T08:12:37;9.77;;;3.10;;
33495;SDS011;19836;55.812;37.560;2022-08-19T08:15:08;8.00;;;3.05;;
33495;SDS011;19836;55.812;37.560;2022-08-19T08:17:36;6.07;;;2.90;;
33495;SDS011;19836;55.812;37.560;2022-08-19T08:20:05;6.35;;;2.40;;
33495;SDS011;19836;55.812;37.560;2022-08-19T08:22:32;5.30;;;2.60;;
33495;SDS011;19836;55.812;37.560;2022-08-19T08:25:18;7.10;;;2.65;;
33495;SDS011;19836;55.812;37.560;2022-08-19T08:27:46;4.15;;;2.80;;
33495;SDS011;19836;55.812;37.560;2022-08-19T08:30:14;9.60;;;3.28;;
33495;SDS011;19836;55.812;37.560;2022-08-19T08:32:49;6.78;;;2.83;;
33495;SDS011;19836;55.812;37.560;2022-08-19T08:35:16;6.20;;;3.20;;
33495;SDS011;19836;55.812;37.560;2022-08-19T08:37:44;7.22;;;3.05;;
33495;SDS011;19836;55.812;37.560;2022-08-19T08:42:55;5.72;;;2.88;;
33495;SDS011;19836;55.812;37.560;2022-08-19T08:45:30;6.57;;;3.28;;
33495;SDS011;19836;55.812;37.560;2022-08-19T08:47:58;7.22;;;3.30;;
33495;SDS011;19836;55.812;37.560;2022-08-19T08:50:32;6.22;;;3.50;;
33495;SDS011;19836;55.812;37.560;2022-08-19T08:53:03;6.63;;;3.03;;
33495;SDS011;19836;55.812;37.560;2022-08-19T08:55:31;6.65;;;3.53;;
33495;SDS011;19836;55.812;37.560;2022-08-19T09:01:25;4.65;;;3.03;;
33495;SDS011;19836;55.812;37.560;2022-08-19T09:03:51;8.02;;;3.35;;
33495;SDS011;19836;55.812;37.560;2022-08-19T09:06:23;4.40;;;3.17;;
33495;SDS011;19836;55.812;37.560;2022-08-19T09:11:36;6.25;;;3.30;;
33495;SDS011;19836;55.812;37.560;2022-08-19T09:17:01;9.00;;;3.30;;
33495;SDS011;19836;55.812;37.560;2022-08-19T09:19:34;6.97;;;3.47;;
33495;SDS011;19836;55.812;37.560;2022-08-19T09:22:14;8.10;;;3.78;;
33495;SDS011;19836;55.812;37.560;2022-08-19T09:24:40;4.97;;;3.38;;
33495;SDS011;19836;55.812;37.560;2022-08-19T09:27:06;6.93;;;3.35;;
33495;SDS011;19836;55.812;37.560;2022-08-19T09:29:31;9.52;;;3.15;;
33495;SDS011;19836;55.812;37.560;2022-08-19T09:31:57;8.40;;;3.42;;
33495;SDS011;19836;55.812;37.560;2022-08-19T09:34:23;7.07;;;3.10;;
33495;SDS011;19836;55.812;37.560;2022-08-19T09:36:49;5.05;;;2.97;;
33495;SDS011;19836;55.812;37.560;2022-08-19T09:39:18;8.90;;;3.38;;
33495;SDS011;19836;55.812;37.560;2022-08-19T09:41:44;6.55;;;3.08;;
33495;SDS011;19836;55.812;37.560;2022-08-19T09:44:10;8.63;;;3.35;;
33495;SDS011;19836;55.812;37.560;2022-08-19T09:46:37;7.35;;;3.20;;
33495;SDS011;19836;55.812;37.560;2022-08-19T09:49:04;8.10;;;3.00;;
33495;SDS011;19836;55.812;37.560;2022-08-19T09:51:31;7.85;;;3.30;;
33495;SDS011;19836;55.812;37.560;2022-08-19T09:53:59;5.38;;;2.90;;
33495;SDS011;19836;55.812;37.560;2022-08-19T09:56:26;6.22;;;3.40;;
33495;SDS011;19836;55.812;37.560;2022-08-19T09:58:53;9.88;;;3.58;;
33495;SDS011;19836;55.812;37.560;2022-08-19T10:01:20;5.82;;;3.33;;
33495;SDS011;19836;55.812;37.560;2022-08-19T10:03:52;5.32;;;3.03;;
33495;SDS011;19836;55.812;37.560;2022-08-19T10:06:20;7.00;;;3.15;;
33495;SDS011;19836;55.812;37.560;2022-08-19T10:08:48;6.55;;;3.20;;
33495;SDS011;19836;55.812;37.560;2022-08-19T10:11:15;6.50;;;3.75;;
33495;SDS011;19836;55.812;37.560;2022-08-19T10:13:43;9.02;;;3.60;;
33495;SDS011;19836;55.812;37.560;2022-08-19T10:16:11;9.18;;;4.05;;
33495;SDS011;19836;55.812;37.560;2022-08-19T10:18:43;7.13;;;3.72;;
33495;SDS011;19836;55.812;37.560;2022-08-19T10:21:22;6.55;;;3.50;;
33495;SDS011;19836;55.812;37.560;2022-08-19T10:23:51;8.20;;;3.30;;
33495;SDS011;19836;55.812;37.560;2022-08-19T10:26:21;8.32;;;3.30;;
33495;SDS011;19836;55.812;37.560;2022-08-19T10:28:49;5.07;;;3.30;;
33495;SDS011;19836;55.812;37.560;2022-08-19T10:31:17;7.82;;;3.80;;
33495;SDS011;19836;55.812;37.560;2022-08-19T10:33:46;9.05;;;3.85;;
33495;SDS011;19836;55.812;37.560;2022-08-19T10:36:14;5.05;;;3.28;;
33495;SDS011;19836;55.812;37.560;2022-08-19T10:38:43;8.20;;;3.80;;
33495;SDS011;19836;55.812;37.560;2022-08-19T10:41:12;6.88;;;3.83;;
33495;SDS011;19836;55.812;37.560;2022-08-19T10:43:56;10.10;;;3.63;;
33495;SDS011;19836;55.812;37.560;2022-08-19T10:46:24;9.13;;;3.60;;
33495;SDS011;19836;55.812;37.560;2022-08-19T10:48:52;5.80;;;3.65;;
33495;SDS011;19836;55.812;37.560;2022-08-19T10:51:19;7.50;;;3.78;;
33495;SDS011;19836;55.812;37.560;2022-08-19T10:54:05;10.68;;;3.72;;
33495;SDS011;19836;55.812;37.560;2022-08-19T10:56:32;6.47;;;3.80;;
33495;SDS011;19836;55.812;37.560;2022-08-19T10:59:21;7.93;;;3.13;;
33495;SDS011;19836;55.812;37.560;2022-08-19T11:01:50;5.35;;;2.80;;
33495;SDS011;19836;55.812;37.560;2022-08-19T11:04:17;5.75;;;2.70;;
33495;SDS011;19836;55.812;37.560;2022-08-19T11:06:44;5.75;;;2.55;;
33495;SDS011;19836;55.812;37.560;2022-08-19T11:09:13;7.00;;;2.78;;
33495;SDS011;19836;55.812;37.560;2022-08-19T11:11:41;6.00;;;1.80;;
33495;SDS011;19836;55.812;37.560;2022-08-19T11:14:08;6.55;;;2.30;;
33495;SDS011;19836;55.812;37.560;2022-08-19T11:16:35;5.60;;;1.92;;
33495;SDS011;19836;55.812;37.560;2022-08-19T11:19:04;6.22;;;1.88;;
33495;SDS011;19836;55.812;37.560;2022-08-19T11:21:34;6.00;;;2.13;;
33495;SDS011;19836;55.812;37.560;2022-08-19T11:24:03;7.60;;;2.30;;
33495;SDS011;19836;55.812;37.560;2022-08-19T11:26:34;7.60;;;2.03;;
33495;SDS011;19836;55.812;37.560;2022-08-19T11:29:02;8.32;;;2.25;;
33495;SDS011;19836;55.812;37.560;2022-08-19T11:31:31;6.82;;;1.88;;
33495;SDS011;19836;55.812;37.560;2022-08-19T11:33:59;7.38;;;2.03;;
33495;SDS011;19836;55.812;37.560;2022-08-19T11:36:27;3.95;;;2.13;;
33495;SDS011;19836;55.812;37.560;2022-08-19T11:38:54;6.53;;;1.90;;
33495;SDS011;19836;55.812;37.560;2022-08-19T11:41:20;6.38;;;1.90;;
33495;SDS011;19836;55.812;37.560;2022-08-19T11:43:51;4.07;;;2.30;;
33495;SDS011;19836;55.812;37.560;2022-08-19T11:46:20;6.28;;;2.05;;
33495;SDS011;19836;55.812;37.560;2022-08-19T11:48:48;3.53;;;2.20;;
33495;SDS011;19836;55.812;37.560;2022-08-19T11:51:32;6.90;;;2.30;;
33495;SDS011;19836;55.812;37.560;2022-08-19T11:53:59;5.85;;;2.10;;
33495;SDS011;19836;55.812;37.560;2022-08-19T11:56:25;7.28;;;2.28;;
33495;SDS011;19836;55.812;37.560;2022-08-19T11:58:52;8.40;;;2.40;;
33495;SDS011;19836;55.812;37.560;2022-08-19T12:01:19;4.20;;;1.98;;
33495;SDS011;19836;55.812;37.560;2022-08-19T12:03:47;9.15;;;2.45;;
33495;SDS011;19836;55.812;37.560;2022-08-19T12:06:16;7.05;;;3.00;;
33495;SDS011;19836;55.812;37.560;2022-08-19T12:08:45;7.10;;;2.50;;
33495;SDS011;19836;55.812;37.560;2022-08-19T12:11:13;3.67;;;2.00;;
33495;SDS011;19836;55.812;37.560;2022-08-19T12:13:40;4.47;;;1.90;;
33495;SDS011;19836;55.812;37.560;2022-08-19T12:16:10;4.88;;;1.67;;
33495;SDS011;19836;55.812;37.560;2022-08-19T12:18:41;5.15;;;1.70;;
33495;SDS011;19836;55.812;37.560;2022-08-19T12:21:18;6.13;;;1.92;;
33495;SDS011;19836;55.812;37.560;2022-08-19T12:23:48;5.03;;;1.98;;
33495;SDS011;19836;55.812;37.560;2022-08-19T12:26:15;3.60;;;1.75;;
33495;SDS011;19836;55.812;37.560;2022-08-19T12:28:41;2.88;;;1.98;;
33495;SDS011;19836;55.812;37.560;2022-08-19T12:31:08;6.20;;;2.20;;
33495;SDS011;19836;55.812;37.560;2022-08-19T12:33:37;5.30;;;1.93;;
33495;SDS011;19836;55.812;37.560;2022-08-19T12:36:05;3.45;;;1.98;;
33495;SDS011;19836;55.812;37.560;2022-08-19T12:38:33;6.07;;;2.17;;
33495;SDS011;19836;55.812;37.560;2022-08-19T12:41:00;4.22;;;2.30;;
33495;SDS011;19836;55.812;37.560;2022-08-19T12:43:26;7.82;;;2.83;;
33495;SDS011;19836;55.812;37.560;2022-08-19T12:45:52;5.93;;;1.92;;
33495;SDS011;19836;55.812;37.560;2022-08-19T12:48:18;6.38;;;2.25;;
33495;SDS011;19836;55.812;37.560;2022-08-19T12:50:44;4.68;;;1.77;;
33495;SDS011;19836;55.812;37.560;2022-08-19T12:53:11;7.97;;;1.70;;
33495;SDS011;19836;55.812;37.560;2022-08-19T12:55:37;5.07;;;1.90;;
33495;SDS011;19836;55.812;37.560;2022-08-19T12:58:03;4.75;;;1.75;;
33495;SDS011;19836;55.812;37.560;2022-08-19T13:00:29;6.15;;;2.20;;
33495;SDS011;19836;55.812;37.560;2022-08-19T13:02:58;4.75;;;2.17;;
33495;SDS011;19836;55.812;37.560;2022-08-19T13:05:29;7.85;;;2.38;;
33495;SDS011;19836;55.812;37.560;2022-08-19T13:07:56;6.50;;;2.00;;
33495;SDS011;19836;55.812;37.560;2022-08-19T13:10:26;3.80;;;2.03;;
33495;SDS011;19836;55.812;37.560;2022-08-19T13:12:54;7.70;;;2.38;;
33495;SDS011;19836;55.812;37.560;2022-08-19T13:15:21;7.60;;;2.20;;
33495;SDS011;19836;55.812;37.560;2022-08-19T13:17:48;5.03;;;2.20;;
33495;SDS011;19836;55.812;37.560;2022-08-19T13:20:16;8.77;;;2.20;;
33495;SDS011;19836;55.812;37.560;2022-08-19T13:22:44;6.15;;;2.53;;
33495;SDS011;19836;55.812;37.560;2022-08-19T13:25:11;6.45;;;2.38;;
33495;SDS011;19836;55.812;37.560;2022-08-19T13:27:41;5.22;;;2.30;;
33495;SDS011;19836;55.812;37.560;2022-08-19T13:30:08;8.45;;;2.40;;
33495;SDS011;19836;55.812;37.560;2022-08-19T13:32:54;6.53;;;2.70;;
33495;SDS011;19836;55.812;37.560;2022-08-19T13:35:49;6.47;;;2.20;;
33495;SDS011;19836;55.812;37.560;2022-08-19T13:38:22;6.00;;;2.20;;
33495;SDS011;19836;55.812;37.560;2022-08-19T13:40:49;10.80;;;2.88;;
33495;SDS011;19836;55.812;37.560;2022-08-19T13:43:18;13.20;;;2.97;;
33495;SDS011;19836;55.812;37.560;2022-08-19T13:45:47;11.20;;;2.67;;
33495;SDS011;19836;55.812;37.560;2022-08-19T13:48:13;9.85;;;2.55;;
33495;SDS011;19836;55.812;37.560;2022-08-19T13:50:40;2.97;;;2.15;;
33495;SDS011;19836;55.812;37.560;2022-08-19T13:53:09;8.75;;;2.30;;
33495;SDS011;19836;55.812;37.560;2022-08-19T13:55:37;5.18;;;2.45;;
33495;SDS011;19836;55.812;37.560;2022-08-19T13:58:04;5.47;;;2.55;;
33495;SDS011;19836;55.812;37.560;2022-08-19T14:00:32;7.80;;;2.80;;
33495;SDS011;19836;55.812;37.560;2022-08-19T14:03:02;8.13;;;2.47;;
33495;SDS011;19836;55.812;37.560;2022-08-19T14:05:29;5.95;;;2.15;;
33495;SDS011;19836;55.812;37.560;2022-08-19T14:07:56;8.07;;;2.53;;
33495;SDS011;19836;55.812;37.560;2022-08-19T14:10:23;5.32;;;2.35;;
33495;SDS011;19836;55.812;37.560;2022-08-19T14:12:52;7.53;;;2.20;;
33495;SDS011;19836;55.812;37.560;2022-08-19T14:15:18;4.97;;;2.17;;
33495;SDS011;19836;55.812;37.560;2022-08-19T14:17:44;3.83;;;2.05;;
33495;SDS011;19836;55.812;37.560;2022-08-19T14:20:12;3.47;;;2.10;;
33495;SDS011;19836;55.812;37.560;2022-08-19T14:22:40;7.10;;;2.13;;
33495;SDS011;19836;55.812;37.560;2022-08-19T14:25:08;5.32;;;2.30;;
33495;SDS011;19836;55.812;37.560;2022-08-19T14:27:37;4.28;;;2.53;;
33495;SDS011;19836;55.812;37.560;2022-08-19T14:30:04;5.60;;;2.08;;
33495;SDS011;19836;55.812;37.560;2022-08-19T14:32:32;5.93;;;2.20;;
33495;SDS011;19836;55.812;37.560;2022-08-19T14:35:00;5.07;;;1.90;;
33495;SDS011;19836;55.812;37.560;2022-08-19T14:37:27;5.22;;;2.53;;
33495;SDS011;19836;55.812;37.560;2022-08-19T14:39:53;6.90;;;2.80;;
33495;SDS011;19836;55.812;37.560;2022-08-19T14:42:19;11.80;;;4.43;;
33495;SDS011;19836;55.812;37.560;2022-08-19T14:44:45;9.13;;;4.40;;
33495;SDS011;19836;55.812;37.560;2022-08-19T14:47:11;7.65;;;5.38;;
33495;SDS011;19836;55.812;37.560;2022-08-19T14:49:37;7.05;;;5.40;;
33495;SDS011;19836;55.812;37.560;2022-08-19T14:52:04;9.35;;;5.30;;
33495;SDS011;19836;55.812;37.560;2022-08-19T14:54:31;5.40;;;4.55;;
33495;SDS011;19836;55.812;37.560;2022-08-19T14:56:57;7.85;;;4.57;;
33495;SDS011;19836;55.812;37.560;2022-08-19T14:59:23;9.50;;;4.43;;
33495;SDS011;19836;55.812;37.560;2022-08-19T15:01:49;4.13;;;3.40;;
33495;SDS011;19836;55.812;37.560;2022-08-19T15:04:15;6.85;;;3.53;;